Weldon, Illinois
Current Conditions -  °F | °C
As of 2:54 AM on Saturday 25 Oct 2014 (Local Time) from KDEC Reporting Station
Broken Clouds Broken Clouds  
Wind Chill: 61°   Ceiling: 4800
Heat Index: 61°   Visibility: 10mi
Dew Point: 53°   Wind: 10mph
Humidity: 75%   Direction: 240°WSW
Pressure: 29.96"   Gusts: NA
Location:  40.12°N, 88.75°W
Report Text: KDEC 250754Z AUTO 24009KT 10SM BKN048 16/12 A2996 RMK AO2 SLP143 T01610117 TSNO
Loading
Personal Weather Stations






























Interactive Weather Map
Tropical Storm Tracking
New forecast layout! Learn more

10-Day Weather Forecast

Advertisements
Track Severe Weather on mobile